Time;durP1;ratioP1;P1;durP2;ratioP2;P2;SDS_P1;SDS_P2;PMS_P1;PMS_P2;Temp;Humidity;BMP_temperature;BMP_pressure;BME280_temperature;BME280_humidity;BME280_pressure;Samples;Min_cycle;Max_cycle;Signal;HPM_P1;HPM_P2
2023/05/30 00:00:15;;;;;;;9.70;5.00;;;20.90;70.10;;;;;;6245789;23;20023;-80
2023/05/30 00:02:44;;;;;;;11.07;5.75;;;20.90;70.50;;;;;;6245619;23;20008;-80
2023/05/30 00:05:12;;;;;;;11.25;5.75;;;20.90;70.20;;;;;;6244999;23;20366;-80
2023/05/30 00:07:37;;;;;;;12.40;5.70;;;20.90;70.40;;;;;;6245754;23;20067;-81
2023/05/30 00:10:03;;;;;;;9.65;6.03;;;20.80;70.40;;;;;;6218508;23;20378;-80
2023/05/30 00:12:29;;;;;;;10.00;5.50;;;20.70;70.90;;;;;;6245001;23;20416;-79
2023/05/30 00:14:55;;;;;;;9.77;5.43;;;20.70;70.80;;;;;;6245900;23;20019;-81
2023/05/30 00:17:21;;;;;;;7.93;5.13;;;20.60;70.90;;;;;;6245553;23;19996;-80
2023/05/30 00:19:47;;;;;;;10.35;5.70;;;20.60;70.70;;;;;;6244996;23;20008;-80
2023/05/30 00:22:14;;;;;;;10.77;5.82;;;20.50;71.30;;;;;;6245156;23;20330;-80
2023/05/30 00:24:39;;;;;;;8.15;5.50;;;20.40;71.50;;;;;;6245698;23;20004;-80
2023/05/30 00:27:05;;;;;;;10.32;5.88;;;20.40;71.70;;;;;;6245143;23;20063;-81
2023/05/30 00:29:31;;;;;;;10.80;6.40;;;20.40;72.10;;;;;;6245339;23;20004;-80
2023/05/30 00:31:57;;;;;;;7.50;5.32;;;20.40;72.10;;;;;;6245035;23;19996;-80
2023/05/30 00:34:23;;;;;;;11.00;6.05;;;20.30;72.30;;;;;;6244689;23;20070;-78
2023/05/30 00:36:49;;;;;;;8.43;5.82;;;20.30;72.50;;;;;;6245087;23;20461;-81
2023/05/30 00:39:15;;;;;;;8.10;6.05;;;20.30;72.40;;;;;;6244537;23;20004;-79
2023/05/30 00:41:41;;;;;;;11.23;6.78;;;20.30;72.40;;;;;;6245286;23;20295;-80
2023/05/30 00:44:07;;;;;;;11.02;6.18;;;20.30;72.70;;;;;;6245183;23;19997;-81
2023/05/30 00:46:33;;;;;;;14.57;5.78;;;20.20;73.00;;;;;;6245135;23;20004;-79
2023/05/30 00:48:59;;;;;;;9.70;5.47;;;20.10;73.30;;;;;;6245025;23;20000;-81
2023/05/30 00:51:28;;;;;;;9.85;5.80;;;20.10;73.20;;;;;;6244813;23;20004;-80
2023/05/30 00:53:55;;;;;;;14.82;5.60;;;20.10;73.30;;;;;;6244773;23;20058;-79
2023/05/30 00:56:23;;;;;;;8.30;5.70;;;20.10;73.00;;;;;;6244673;23;20008;-79
2023/05/30 00:58:52;;;;;;;8.55;6.00;;;20.10;73.40;;;;;;6244744;23;20004;-80
2023/05/30 01:01:19;;;;;;;10.82;5.40;;;20.10;74.00;;;;;;6244443;23;20008;-79
2023/05/30 01:03:47;;;;;;;10.30;5.95;;;20.10;73.10;;;;;;6244519;23;20027;-80
2023/05/30 01:06:13;;;;;;;10.50;5.65;;;20.10;73.10;;;;;;6244723;23;20504;-80
2023/05/30 01:08:39;;;;;;;14.82;6.20;;;20.00;73.30;;;;;;6244523;23;20080;-79
2023/05/30 01:11:31;;;;;;;10.38;5.60;;;19.90;73.60;;;;;;6244700;23;20399;-80
2023/05/30 01:14:02;;;;;;;12.88;5.50;;;19.90;73.40;;;;;;6193185;23;20083;-80
2023/05/30 01:16:35;;;;;;;8.57;5.30;;;20.00;73.60;;;;;;6245656;23;20000;-79
2023/05/30 01:19:29;;;;;;;;;;;20.00;73.40;;;;;;6245764;23;20442;-80
2023/05/30 01:22:33;;;;;;;7.72;4.80;;;19.90;74.30;;;;;;6215066;23;19915;-78
2023/05/30 01:25:40;;;;;;;10.88;5.50;;;19.80;74.20;;;;;;6244685;23;20027;-79
2023/05/30 01:28:13;;;;;;;14.23;6.13;;;19.70;74.40;;;;;;6244571;23;20070;-79
2023/05/30 01:30:52;;;;;;;11.60;6.28;;;19.80;74.50;;;;;;6244574;23;20030;-80
2023/05/30 01:33:21;;;;;;;10.15;6.20;;;19.80;73.90;;;;;;6244523;23;20380;-81
2023/05/30 01:35:47;;;;;;;8.27;5.43;;;19.80;73.70;;;;;;6244284;23;20000;-81
2023/05/30 01:38:14;;;;;;;10.32;6.00;;;19.80;73.90;;;;;;6244781;23;20291;-80
2023/05/30 01:40:48;;;;;;;11.50;6.10;;;19.80;74.00;;;;;;6244716;23;20024;-81
2023/05/30 01:43:22;;;;;;;11.35;5.85;;;19.70;74.20;;;;;;6244528;23;20142;-79
2023/05/30 01:46:21;;;;;;;12.73;6.28;;;19.70;74.90;;;;;;6244689;23;20380;-80
2023/05/30 01:49:03;;;;;;;13.75;6.10;;;19.70;74.80;;;;;;6246591;23;20457;-80
2023/05/30 01:51:55;;;;;;;11.23;6.28;;;19.80;74.90;;;;;;6244485;23;20028;-79
2023/05/30 01:54:21;;;;;;;9.65;5.40;;;19.80;74.00;;;;;;6244411;23;20039;-80
2023/05/30 01:56:53;;;;;;;16.55;5.75;;;19.70;74.20;;;;;;6217431;23;20078;-80
2023/05/30 01:59:20;;;;;;;12.05;6.40;;;19.70;74.30;;;;;;6244472;23;20023;-80
2023/05/30 02:01:47;;;;;;;9.68;5.50;;;19.60;74.50;;;;;;6244289;23;20341;-80
2023/05/30 02:04:13;;;;;;;11.07;6.40;;;19.60;74.30;;;;;;6244953;23;20016;-80
2023/05/30 02:06:38;;;;;;;13.52;6.07;;;19.60;74.60;;;;;;6244571;23;20004;-80
2023/05/30 02:09:04;;;;;;;10.63;6.13;;;19.60;74.60;;;;;;6216989;23;20006;-80
2023/05/30 02:11:30;;;;;;;11.60;6.53;;;19.60;74.70;;;;;;6243946;23;20038;-81
2023/05/30 02:13:58;;;;;;;10.68;6.03;;;19.50;75.00;;;;;;6244326;23;20000;-79
2023/05/30 02:16:24;;;;;;;10.35;5.88;;;19.50;75.20;;;;;;6244511;23;20118;-79
2023/05/30 02:18:52;;;;;;;11.27;6.13;;;19.50;75.00;;;;;;6246807;23;20032;-79
2023/05/30 02:21:18;;;;;;;12.10;5.75;;;19.50;75.10;;;;;;6246280;23;20035;-79
2023/05/30 02:23:44;;;;;;;10.38;6.38;;;19.50;75.20;;;;;;6246392;23;19996;-79
2023/05/30 02:26:10;;;;;;;10.82;6.45;;;19.50;75.20;;;;;;6246425;23;20027;-80
2023/05/30 02:28:35;;;;;;;12.10;6.03;;;19.50;75.40;;;;;;6246132;23;20345;-79
2023/05/30 02:31:02;;;;;;;18.13;6.00;;;19.50;75.40;;;;;;6246147;23;20001;-79
2023/05/30 02:33:28;;;;;;;12.00;5.88;;;19.40;75.50;;;;;;6246182;23;20334;-80
2023/05/30 02:35:53;;;;;;;11.57;6.25;;;19.40;75.40;;;;;;6246019;23;20016;-80
2023/05/30 02:38:19;;;;;;;14.65;6.63;;;19.40;75.60;;;;;;6246258;23;20003;-80
2023/05/30 02:40:45;;;;;;;12.43;6.53;;;19.40;75.60;;;;;;6246048;23;20066;-80
2023/05/30 02:43:11;;;;;;;17.00;6.40;;;19.40;75.60;;;;;;6246606;23;20050;-79
2023/05/30 02:45:37;;;;;;;12.20;6.68;;;19.40;75.60;;;;;;6246464;23;20078;-81
2023/05/30 02:48:03;;;;;;;11.45;6.55;;;19.40;75.90;;;;;;6246311;23;19993;-79
2023/05/30 02:50:29;;;;;;;9.85;6.03;;;19.30;76.30;;;;;;6246514;23;20007;-78
2023/05/30 02:52:54;;;;;;;10.93;6.07;;;19.30;76.30;;;;;;6219195;23;20502;-81
2023/05/30 02:55:20;;;;;;;13.10;6.28;;;19.20;76.50;;;;;;6246191;23;20460;-77
2023/05/30 02:57:46;;;;;;;10.98;5.85;;;19.30;76.50;;;;;;6246444;23;20325;-78
2023/05/30 03:00:13;;;;;;;14.13;6.85;;;19.30;76.30;;;;;;6245849;23;20408;-81
2023/05/30 03:02:39;;;;;;;9.82;6.20;;;19.30;76.80;;;;;;6246059;23;20437;-79
2023/05/30 03:05:06;;;;;;;11.20;6.07;;;19.20;76.30;;;;;;6248792;23;20023;-80
2023/05/30 03:07:32;;;;;;;11.57;6.28;;;19.20;76.70;;;;;;6249160;23;20023;-80
2023/05/30 03:09:58;;;;;;;8.93;5.88;;;19.20;76.50;;;;;;6245815;23;20015;-79
2023/05/30 03:12:24;;;;;;;10.88;6.10;;;19.20;76.50;;;;;;6245953;23;20365;-79
2023/05/30 03:14:49;;;;;;;8.70;6.13;;;19.20;76.60;;;;;;6245890;23;19997;-79
2023/05/30 03:17:15;;;;;;;11.20;6.32;;;19.20;76.30;;;;;;6246126;23;20011;-81
2023/05/30 03:19:41;;;;;;;8.00;5.20;;;19.20;76.30;;;;;;6246039;23;20027;-79
2023/05/30 03:22:07;;;;;;;9.40;5.88;;;19.10;76.50;;;;;;6245345;23;20018;-79
2023/05/30 03:24:33;;;;;;;11.43;6.47;;;19.20;76.50;;;;;;6246145;23;19997;-78
2023/05/30 03:26:59;;;;;;;9.40;5.97;;;19.20;76.30;;;;;;6246019;23;20005;-79
2023/05/30 03:29:26;;;;;;;13.25;6.60;;;19.20;76.70;;;;;;6245715;23;20130;-79
2023/05/30 03:31:51;;;;;;;13.95;6.40;;;19.20;76.30;;;;;;6219031;23;20612;-78
2023/05/30 03:34:18;;;;;;;13.25;6.03;;;19.00;76.60;;;;;;6245932;23;20024;-66
2023/05/30 03:36:43;;;;;;;15.32;6.50;;;19.00;76.80;;;;;;6245629;23;20000;-79
2023/05/30 03:39:09;;;;;;;10.90;6.03;;;18.90;77.00;;;;;;6245702;23;20004;-79
2023/05/30 03:41:35;;;;;;;9.95;6.10;;;18.90;77.20;;;;;;6245809;23;20012;-79
2023/05/30 03:44:01;;;;;;;17.02;6.85;;;19.00;77.10;;;;;;6245532;23;20414;-78
2023/05/30 03:46:26;;;;;;;9.43;5.72;;;19.00;77.20;;;;;;6245557;23;20011;-79
2023/05/30 03:48:52;;;;;;;12.00;6.57;;;19.00;77.10;;;;;;6245856;23;20008;-79
2023/05/30 03:51:18;;;;;;;10.25;6.07;;;19.10;77.10;;;;;;6245503;23;20000;-78
2023/05/30 03:53:44;;;;;;;9.45;5.68;;;19.10;76.80;;;;;;6245523;23;20058;-80
2023/05/30 03:56:10;;;;;;;11.68;6.40;;;19.20;76.80;;;;;;6245514;23;20426;-79
2023/05/30 03:58:35;;;;;;;12.15;6.30;;;19.30;77.30;;;;;;6245500;23;20000;-79
2023/05/30 04:01:01;;;;;;;18.77;6.50;;;19.20;76.20;;;;;;6245304;23;20330;-79
2023/05/30 04:03:28;;;;;;;11.57;6.75;;;19.20;76.40;;;;;;6245516;23;20012;-78
2023/05/30 04:05:55;;;;;;;11.40;6.25;;;19.10;76.40;;;;;;6245439;23;20001;-79
2023/05/30 04:08:22;;;;;;;10.10;5.70;;;19.10;76.70;;;;;;6218380;23;20008;-80
2023/05/30 04:10:48;;;;;;;10.70;5.70;;;19.10;76.50;;;;;;6245786;23;20034;-81
2023/05/30 04:13:14;;;;;;;12.05;6.60;;;19.10;76.70;;;;;;6245214;23;20276;-78
2023/05/30 04:15:40;;;;;;;16.23;6.40;;;19.10;76.90;;;;;;6245276;23;20010;-79
2023/05/30 04:18:05;;;;;;;16.50;6.72;;;19.10;76.60;;;;;;6245070;23;20310;-79
2023/05/30 04:20:31;;;;;;;12.70;6.10;;;19.00;76.80;;;;;;6244837;23;20008;-80
2023/05/30 04:22:57;;;;;;;18.90;6.72;;;19.00;77.10;;;;;;6245382;23;20003;-80
2023/05/30 04:25:23;;;;;;;12.98;6.82;;;18.90;76.90;;;;;;6245387;23;20078;-80
2023/05/30 04:27:48;;;;;;;10.48;6.22;;;18.90;77.20;;;;;;6245607;23;20004;-79
2023/05/30 04:30:14;;;;;;;14.73;6.70;;;19.00;77.00;;;;;;6248655;23;20000;-79
2023/05/30 04:32:40;;;;;;;9.00;6.50;;;19.00;77.10;;;;;;6250543;23;20038;-78
2023/05/30 04:35:07;;;;;;;21.42;6.43;;;19.00;76.90;;;;;;6246406;23;20000;-80
2023/05/30 04:37:39;;;;;;;15.40;6.93;;;19.10;76.90;;;;;;6246201;23;20023;-80
2023/05/30 04:40:12;;;;;;;12.03;7.50;;;19.10;76.40;;;;;;6245984;23;20017;-78
2023/05/30 04:42:38;;;;;;;11.65;6.80;;;19.20;76.40;;;;;;6246613;23;20008;-79
2023/05/30 04:45:05;;;;;;;11.45;6.20;;;19.20;76.10;;;;;;6245772;23;20004;-80
2023/05/30 04:47:31;;;;;;;12.25;6.13;;;19.20;76.00;;;;;;6246035;23;20000;-80
2023/05/30 04:50:00;;;;;;;11.88;6.38;;;19.20;75.90;;;;;;6246612;23;20074;-79
2023/05/30 04:52:26;;;;;;;11.18;6.07;;;19.10;75.90;;;;;;6246111;23;20000;-80
2023/05/30 04:54:52;;;;;;;11.70;6.13;;;19.20;75.90;;;;;;6245952;23;20004;-80
2023/05/30 04:57:18;;;;;;;10.40;6.53;;;19.20;75.90;;;;;;6221880;23;20004;-80
2023/05/30 04:59:44;;;;;;;15.07;6.60;;;19.20;75.60;;;;;;6246680;23;20011;-78
2023/05/30 05:02:10;;;;;;;12.32;6.45;;;19.30;75.70;;;;;;6247441;23;20004;-80
2023/05/30 05:04:36;;;;;;;13.02;6.60;;;19.40;75.70;;;;;;6245546;23;20012;-79
2023/05/30 05:07:02;;;;;;;12.95;6.25;;;19.40;75.30;;;;;;6245342;23;20078;-79
2023/05/30 05:09:28;;;;;;;13.15;6.13;;;19.50;75.60;;;;;;6245010;23;20082;-79
2023/05/30 05:11:54;;;;;;;14.65;5.97;;;19.50;75.30;;;;;;6245710;23;20436;-80
2023/05/30 05:14:20;;;;;;;11.10;6.40;;;19.50;75.20;;;;;;6245824;23;20004;-80
2023/05/30 05:16:45;;;;;;;14.48;6.38;;;19.40;75.20;;;;;;6245187;23;20043;-79
2023/05/30 05:19:11;;;;;;;17.13;6.68;;;19.40;75.20;;;;;;6245050;23;20011;-81
2023/05/30 05:21:37;;;;;;;11.13;5.93;;;19.40;75.20;;;;;;6245046;23;20430;-80
2023/05/30 05:24:03;;;;;;;13.77;6.50;;;19.40;75.20;;;;;;6245319;23;20083;-79
2023/05/30 05:26:29;;;;;;;13.48;6.80;;;19.30;75.30;;;;;;6218467;23;20008;-79
2023/05/30 05:28:56;;;;;;;12.75;6.80;;;19.30;75.30;;;;;;6245413;23;20015;-79
2023/05/30 05:31:22;;;;;;;10.88;6.47;;;19.30;75.20;;;;;;6245285;23;20055;-80
2023/05/30 05:33:48;;;;;;;14.15;6.80;;;19.30;75.40;;;;;;6245293;23;20035;-79
2023/05/30 05:36:14;;;;;;;10.05;6.38;;;19.40;75.40;;;;;;6244813;23;20000;-78
2023/05/30 05:38:40;;;;;;;12.07;6.53;;;19.40;75.40;;;;;;6245277;23;19996;-79
2023/05/30 05:41:06;;;;;;;17.52;8.40;;;19.60;75.00;;;;;;6246684;23;20032;-79
2023/05/30 05:43:31;;;;;;;10.90;6.22;;;19.80;74.80;;;;;;6244947;23;20087;-79
2023/05/30 05:45:57;;;;;;;13.27;6.10;;;19.90;74.40;;;;;;6245096;23;20462;-76
2023/05/30 05:48:23;;;;;;;13.60;5.57;;;20.10;74.00;;;;;;6245924;23;20008;-78
2023/05/30 05:50:48;;;;;;;18.15;10.48;;;20.30;73.70;;;;;;6258765;23;20023;-80
2023/05/30 05:53:14;;;;;;;19.73;12.70;;;20.50;73.10;;;;;;6266991;23;20007;-77
2023/05/30 05:55:40;;;;;;;11.73;6.38;;;20.60;72.70;;;;;;6248419;23;20460;-78
2023/05/30 05:58:06;;;;;;;16.95;6.47;;;21.00;72.10;;;;;;6245474;23;20047;-78
2023/05/30 06:00:34;;;;;;;11.20;5.68;;;21.50;71.10;;;;;;6245424;23;20069;-77
2023/05/30 06:03:00;;;;;;;14.57;5.93;;;22.10;69.90;;;;;;6245185;23;20027;-80
2023/05/30 06:05:26;;;;;;;22.02;6.30;;;22.60;68.70;;;;;;6244682;23;20015;-79
2023/05/30 06:07:52;;;;;;;10.40;5.18;;;23.00;67.60;;;;;;6244937;23;20004;-79
2023/05/30 06:10:18;;;;;;;11.57;6.50;;;23.30;66.80;;;;;;6217790;23;20031;-78
2023/05/30 06:12:45;;;;;;;12.75;5.78;;;23.40;66.20;;;;;;6245056;23;20004;-78
2023/05/30 06:15:12;;;;;;;12.30;5.80;;;23.70;66.30;;;;;;6245061;23;20429;-73
2023/05/30 06:17:38;;;;;;;15.82;6.68;;;24.00;65.50;;;;;;6244787;23;20008;-78
2023/05/30 06:20:04;;;;;;;9.65;5.30;;;24.10;65.10;;;;;;6244737;23;20026;-77
2023/05/30 06:22:30;;;;;;;15.85;5.82;;;24.30;64.30;;;;;;6244589;23;20334;-76
2023/05/30 06:24:56;;;;;;;15.10;5.22;;;24.40;64.60;;;;;;6244692;23;20004;-75
2023/05/30 06:27:21;;;;;;;14.48;5.85;;;24.80;64.20;;;;;;6244305;23;20004;-78
2023/05/30 06:29:47;;;;;;;13.63;5.97;;;25.10;63.50;;;;;;6244385;23;20023;-76
2023/05/30 06:32:13;;;;;;;10.10;5.65;;;25.10;63.00;;;;;;6244299;23;20007;-76
2023/05/30 06:34:39;;;;;;;10.38;5.63;;;25.20;62.90;;;;;;6244786;23;20078;-75
2023/05/30 06:37:05;;;;;;;14.45;5.43;;;25.40;62.80;;;;;;6244125;23;20015;-77
2023/05/30 06:39:31;;;;;;;12.57;5.22;;;25.60;62.00;;;;;;6244112;23;20075;-76
2023/05/30 06:41:57;;;;;;;13.68;5.97;;;25.80;62.10;;;;;;6244283;23;20035;-76
2023/05/30 06:44:23;;;;;;;11.82;5.43;;;25.80;61.00;;;;;;6244165;23;20071;-78
2023/05/30 06:46:49;;;;;;;10.20;5.60;;;25.80;61.00;;;;;;6244409;23;20031;-76
2023/05/30 06:49:14;;;;;;;12.02;5.65;;;25.80;61.00;;;;;;6217206;23;20027;-74
2023/05/30 06:51:40;;;;;;;12.15;4.93;;;25.90;60.50;;;;;;6217497;23;20004;-77
2023/05/30 06:54:06;;;;;;;11.35;5.75;;;26.00;60.40;;;;;;6244361;23;20007;-77
2023/05/30 06:56:31;;;;;;;12.57;5.80;;;26.20;60.10;;;;;;6217017;23;20010;-75
2023/05/30 06:58:57;;;;;;;14.43;5.50;;;26.30;59.80;;;;;;6244125;23;20004;-76
2023/05/30 07:01:23;;;;;;;9.35;5.63;;;26.30;59.50;;;;;;6244283;23;20008;-76
2023/05/30 07:03:49;;;;;;;14.32;5.43;;;26.50;59.20;;;;;;6245735;23;20019;-77
2023/05/30 07:06:14;;;;;;;11.73;5.60;;;26.40;59.00;;;;;;6246196;23;20326;-80
2023/05/30 07:08:40;;;;;;;10.27;5.60;;;26.20;59.70;;;;;;6246395;23;20345;-79
2023/05/30 07:11:09;;;;;;;10.48;5.28;;;26.30;59.30;;;;;;6246208;23;20054;-81
2023/05/30 07:13:35;;;;;;;12.82;6.10;;;26.30;59.20;;;;;;6246406;23;20514;-77
2023/05/30 07:16:00;;;;;;;15.32;5.95;;;26.30;59.30;;;;;;6246280;23;20034;-77
2023/05/30 07:18:26;;;;;;;12.68;4.97;;;26.50;59.20;;;;;;6246425;23;20179;-77
2023/05/30 07:20:52;;;;;;;11.07;5.55;;;26.50;58.70;;;;;;6245832;23;20012;-79
2023/05/30 07:23:17;;;;;;;10.98;5.35;;;26.60;58.50;;;;;;6245958;23;20098;-78
2023/05/30 07:25:43;;;;;;;18.27;5.75;;;26.70;58.40;;;;;;6246417;23;20027;-77
2023/05/30 07:28:10;;;;;;;9.48;5.15;;;26.70;58.00;;;;;;6246395;23;20004;-78
2023/05/30 07:30:36;;;;;;;10.65;5.35;;;26.70;58.10;;;;;;6246136;23;20064;-78
2023/05/30 07:33:02;;;;;;;12.23;5.57;;;26.70;57.60;;;;;;6246447;23;20000;-77
2023/05/30 07:35:27;;;;;;;18.23;5.70;;;26.80;57.70;;;;;;6246359;23;20171;-77
2023/05/30 07:37:53;;;;;;;12.57;5.28;;;26.70;57.40;;;;;;6246317;23;20275;-77
2023/05/30 07:40:19;;;;;;;13.75;5.40;;;26.70;57.70;;;;;;6246171;23;20087;-78
2023/05/30 07:42:47;;;;;;;10.88;5.40;;;26.60;57.70;;;;;;6246015;23;20000;-78
2023/05/30 07:45:16;;;;;;;10.02;6.00;;;26.60;57.60;;;;;;6245991;23;19996;-77
2023/05/30 07:47:41;;;;;;;13.35;5.32;;;26.60;57.50;;;;;;6245978;23;19996;-77
2023/05/30 07:50:08;;;;;;;15.05;5.90;;;26.70;57.60;;;;;;6246288;23;20023;-78
2023/05/30 07:52:35;;;;;;;15.75;5.75;;;26.60;57.70;;;;;;6246248;23;20000;-78
2023/05/30 07:55:00;;;;;;;15.23;5.93;;;26.60;57.90;;;;;;6246069;23;20465;-78
2023/05/30 07:57:26;;;;;;;11.48;6.40;;;26.60;57.80;;;;;;6245735;23;20000;-77
2023/05/30 07:59:52;;;;;;;11.35;6.05;;;26.60;58.00;;;;;;6245791;23;20075;-79
2023/05/30 08:02:18;;;;;;;10.35;5.72;;;26.60;58.10;;;;;;6220495;23;20007;-79
2023/05/30 08:04:43;;;;;;;15.13;6.00;;;26.50;58.00;;;;;;6246122;23;20057;-79
2023/05/30 08:07:09;;;;;;;11.48;5.75;;;26.20;58.40;;;;;;6246523;23;20027;-79
2023/05/30 08:09:36;;;;;;;9.48;5.07;;;26.10;58.80;;;;;;6245524;23;20003;-77
2023/05/30 08:12:05;;;;;;;8.48;5.45;;;26.10;59.00;;;;;;6247049;23;20070;-78
2023/05/30 08:14:31;;;;;;;11.23;5.75;;;26.10;59.20;;;;;;6250699;23;20034;-79
2023/05/30 08:16:57;;;;;;;10.95;5.57;;;26.10;59.20;;;;;;6267582;23;20028;-78
2023/05/30 08:19:23;;;;;;;10.80;5.50;;;26.10;59.30;;;;;;6252158;23;20004;-77
2023/05/30 08:21:49;;;;;;;11.88;5.45;;;26.00;59.80;;;;;;6246411;23;20019;-78
2023/05/30 08:24:17;;;;;;;9.52;5.35;;;26.00;59.50;;;;;;6246158;23;20075;-78
2023/05/30 08:26:44;;;;;;;12.15;5.22;;;25.90;59.10;;;;;;6246153;23;20075;-78
2023/05/30 08:29:11;;;;;;;8.43;5.05;;;25.90;59.50;;;;;;6245875;23;20007;-79
2023/05/30 08:31:37;;;;;;;12.13;5.32;;;25.90;59.60;;;;;;6245073;23;20016;-76
2023/05/30 08:34:03;;;;;;;12.52;5.30;;;25.80;59.30;;;;;;6245672;23;20011;-79
2023/05/30 08:36:29;;;;;;;17.00;5.45;;;25.80;59.30;;;;;;6245577;23;20008;-80
2023/05/30 08:38:55;;;;;;;9.77;5.05;;;25.70;59.50;;;;;;6245031;23;20440;-79
2023/05/30 08:41:22;;;;;;;8.48;5.28;;;25.60;59.40;;;;;;6244820;23;20028;-78
2023/05/30 08:43:49;;;;;;;11.23;5.40;;;25.60;59.30;;;;;;6244987;23;19996;-79
2023/05/30 08:46:17;;;;;;;13.82;5.15;;;25.60;59.20;;;;;;6244638;23;20012;-78
2023/05/30 08:48:44;;;;;;;9.20;4.82;;;25.60;59.20;;;;;;6245362;23;20020;-77
2023/05/30 08:51:15;;;;;;;11.23;5.43;;;25.60;58.70;;;;;;6245452;23;20306;-78
2023/05/30 08:53:55;;;;;;;9.07;5.20;;;25.60;58.60;;;;;;6245617;23;20078;-79
2023/05/30 08:56:32;;;;;;;10.68;6.00;;;25.60;58.50;;;;;;6245078;23;20312;-77
2023/05/30 08:59:00;;;;;;;14.25;5.20;;;25.60;58.40;;;;;;6245026;23;20327;-77
2023/05/30 09:01:27;;;;;;;16.38;5.65;;;25.60;58.50;;;;;;6244675;23;20017;-78
2023/05/30 09:03:54;;;;;;;15.18;5.40;;;25.60;58.50;;;;;;6245261;23;20070;-76
2023/05/30 09:06:21;;;;;;;8.23;5.05;;;25.70;58.40;;;;;;6218654;23;20012;-80
2023/05/30 09:08:49;;;;;;;8.68;4.80;;;25.70;58.20;;;;;;6244466;23;20000;-78
2023/05/30 09:11:15;;;;;;;9.82;5.38;;;25.70;57.50;;;;;;6245024;23;20012;-77
2023/05/30 09:13:41;;;;;;;9.65;5.03;;;25.80;57.00;;;;;;6244762;23;20000;-78
2023/05/30 09:16:08;;;;;;;10.50;4.97;;;25.80;56.50;;;;;;6244967;23;20011;-77
2023/05/30 09:18:34;;;;;;;12.68;4.82;;;25.80;56.20;;;;;;6244741;23;19992;-77
2023/05/30 09:21:00;;;;;;;11.50;4.75;;;25.80;56.10;;;;;;6244452;23;20488;-78
2023/05/30 09:23:26;;;;;;;11.70;5.50;;;25.90;56.00;;;;;;6244497;23;19996;-78
2023/05/30 09:25:52;;;;;;;11.43;5.00;;;26.00;56.00;;;;;;6244380;23;20038;-78
2023/05/30 09:28:28;;;;;;;7.57;4.50;;;26.10;55.10;;;;;;6217615;23;20004;-79
2023/05/30 09:31:01;;;;;;;7.10;4.38;;;26.10;53.80;;;;;;6245004;23;20075;-79
2023/05/30 09:33:45;;;;;;;;;;;26.10;53.40;;;;;;6246782;23;20076;-79
2023/05/30 09:36:18;;;;;;;8.95;4.80;;;26.20;53.30;;;;;;6244391;23;19900;-77
2023/05/30 09:38:56;;;;;;;12.57;6.85;;;26.30;54.20;;;;;;6244418;23;20000;-78
2023/05/30 09:41:23;;;;;;;9.63;7.00;;;26.30;53.50;;;;;;6244750;23;20020;-78
2023/05/30 09:43:54;;;;;;;13.57;5.85;;;26.40;54.00;;;;;;6244617;23;20066;-78
2023/05/30 09:46:22;;;;;;;8.02;4.97;;;26.50;53.60;;;;;;6244499;23;20100;-78
2023/05/30 09:48:48;;;;;;;8.15;4.63;;;26.50;53.40;;;;;;6244457;23;20076;-77
2023/05/30 09:51:15;;;;;;;8.98;4.72;;;26.50;53.40;;;;;;6244300;23;20000;-79
2023/05/30 09:53:56;;;;;;;6.90;4.22;;;26.50;53.50;;;;;;6244150;23;19996;-78
2023/05/30 09:56:35;;;;;;;11.90;4.28;;;26.50;52.30;;;;;;6244400;23;20103;-77
2023/05/30 09:59:08;;;;;;;17.83;5.82;;;26.60;53.20;;;;;;6244639;23;19999;-79
2023/05/30 10:01:41;;;;;;;9.75;5.75;;;26.60;53.00;;;;;;6244894;23;20020;-79
2023/05/30 10:04:24;;;;;;;17.83;6.10;;;26.60;52.50;;;;;;6244176;23;20324;-77
2023/05/30 10:06:52;;;;;;;10.65;4.97;;;26.70;53.00;;;;;;6244624;23;20012;-79
2023/05/30 10:09:22;;;;;;;11.13;5.40;;;26.70;52.80;;;;;;6244492;23;20008;-78
2023/05/30 10:11:49;;;;;;;8.73;4.90;;;26.70;52.20;;;;;;6244424;23;20000;-78
2023/05/30 10:14:15;;;;;;;10.30;5.30;;;26.70;52.10;;;;;;6244598;23;20333;-77
2023/05/30 10:16:48;;;;;;;36.78;23.67;;;26.80;52.00;;;;;;6244821;23;20070;-78
2023/05/30 10:19:16;;;;;;;;;;;26.80;51.50;;;;;;6245397;23;20043;-78
2023/05/30 10:21:44;;;;;;;10.05;6.07;;;26.80;52.50;;;;;;6244320;23;19919;-79
2023/05/30 10:24:13;;;;;;;8.18;5.43;;;26.90;52.60;;;;;;6245243;23;20085;-79
2023/05/30 10:26:46;;;;;;;8.35;5.25;;;26.90;52.50;;;;;;6244481;23;20014;-78
2023/05/30 10:29:13;;;;;;;;;;;27.00;52.10;;;;;;6245105;23;20043;-79
2023/05/30 10:31:40;;;;;;;9.40;4.93;;;27.20;52.30;;;;;;6244526;23;19899;-78
2023/05/30 10:34:11;;;;;;;11.82;5.20;;;27.20;51.90;;;;;;6244854;23;20066;-80
2023/05/30 10:36:41;;;;;;;7.43;4.65;;;27.30;51.20;;;;;;6244099;23;19996;-78
2023/05/30 10:39:26;;;;;;;7.75;4.18;;;27.40;51.00;;;;;;6245898;23;20012;-77
2023/05/30 10:42:00;;;;;;;8.88;4.47;;;27.50;50.30;;;;;;6246974;23;20008;-78
2023/05/30 10:44:54;;;;;;;7.50;5.10;;;27.50;50.40;;;;;;6246831;23;20000;-79
2023/05/30 10:47:30;;;;;;;7.63;4.80;;;27.50;49.70;;;;;;6246555;23;20000;-79
2023/05/30 10:50:05;;;;;;;12.05;4.72;;;27.50;50.20;;;;;;6246811;23;20045;-79
2023/05/30 10:52:32;;;;;;;7.38;4.57;;;27.50;51.30;;;;;;6247218;23;20600;-77
2023/05/30 10:54:58;;;;;;;7.93;5.00;;;27.50;51.00;;;;;;6246852;23;19997;-80
2023/05/30 10:57:31;;;;;;;8.25;4.90;;;27.50;50.90;;;;;;6246479;23;20005;-79
2023/05/30 11:00:15;;;;;;;6.78;4.30;;;27.50;50.80;;;;;;6246828;23;20334;-78
2023/05/30 11:02:43;;;;;;;8.85;4.43;;;27.50;51.00;;;;;;6247434;23;20074;-77
2023/05/30 11:05:10;;;;;;;8.95;5.40;;;27.50;51.00;;;;;;6247950;23;20020;-77
2023/05/30 11:07:40;;;;;;;7.95;5.00;;;27.50;50.50;;;;;;6247462;23;20062;-76
2023/05/30 11:10:10;;;;;;;8.98;4.78;;;27.50;50.90;;;;;;6246288;23;20423;-79
2023/05/30 11:12:44;;;;;;;7.65;4.85;;;27.50;50.60;;;;;;6246205;23;20083;-78
2023/05/30 11:15:17;;;;;;;8.90;5.03;;;27.50;50.60;;;;;;6245673;23;20035;-79
2023/05/30 11:17:43;;;;;;;9.27;4.68;;;27.70;49.00;;;;;;6245998;23;20007;-78
2023/05/30 11:20:14;;;;;;;7.00;4.35;;;27.80;49.80;;;;;;6246060;23;20016;-77
2023/05/30 11:22:41;;;;;;;7.97;5.10;;;27.90;47.70;;;;;;6246427;23;20008;-80
2023/05/30 11:25:36;;;;;;;7.22;4.40;;;27.90;48.90;;;;;;6246091;23;20036;-78
2023/05/30 11:28:05;;;;;;;8.55;4.60;;;28.00;48.70;;;;;;6214414;23;20058;-79
2023/05/30 11:30:37;;;;;;;9.65;4.95;;;28.20;49.30;;;;;;6246025;23;20004;-77
2023/05/30 11:33:04;;;;;;;8.95;4.72;;;28.20;47.70;;;;;;6246212;23;20004;-79
2023/05/30 11:35:31;;;;;;;13.90;4.90;;;28.30;49.20;;;;;;6245926;23;20370;-77
2023/05/30 11:37:57;;;;;;;6.57;4.28;;;28.40;48.80;;;;;;6245797;23;20167;-78
2023/05/30 11:40:24;;;;;;;6.82;4.38;;;28.40;48.90;;;;;;6245771;23;20035;-77
2023/05/30 11:42:51;;;;;;;7.75;4.85;;;28.50;48.70;;;;;;6245689;23;20491;-78
2023/05/30 11:45:18;;;;;;;6.53;3.80;;;28.60;48.90;;;;;;6245502;23;20004;-78
2023/05/30 11:47:46;;;;;;;6.47;4.05;;;28.60;48.70;;;;;;6245682;23;20330;-79
2023/05/30 11:50:12;;;;;;;6.50;4.45;;;28.60;48.50;;;;;;6218607;23;20016;-77
2023/05/30 11:52:41;;;;;;;9.10;4.20;;;28.60;48.30;;;;;;6245426;23;20430;-76
2023/05/30 11:55:07;;;;;;;8.85;5.22;;;28.70;48.70;;;;;;6218712;23;20131;-77
2023/05/30 11:57:34;;;;;;;12.13;5.30;;;28.60;49.50;;;;;;6245812;23;20004;-79
2023/05/30 12:00:00;;;;;;;13.02;5.28;;;28.50;50.30;;;;;;6246083;23;20001;-77
2023/05/30 12:02:29;;;;;;;9.77;4.70;;;28.40;50.60;;;;;;6245646;23;20004;-79
2023/05/30 12:05:02;;;;;;;7.78;4.15;;;28.30;50.60;;;;;;6245537;23;20494;-78
2023/05/30 12:07:28;;;;;;;8.40;4.57;;;28.20;50.40;;;;;;6245717;23;20004;-80
2023/05/30 12:09:54;;;;;;;9.20;4.78;;;28.10;51.10;;;;;;6245743;23;20006;-79
2023/05/30 12:12:20;;;;;;;11.30;5.20;;;28.00;51.70;;;;;;6245461;23;19996;-78
2023/05/30 12:14:49;;;;;;;9.15;4.93;;;27.90;52.50;;;;;;6245400;23;20024;-78
2023/05/30 12:17:18;;;;;;;9.85;5.20;;;27.70;52.80;;;;;;6245387;23;20027;-78
2023/05/30 12:20:00;;;;;;;12.43;5.25;;;27.60;53.30;;;;;;6245222;23;20004;-79
2023/05/30 12:22:32;;;;;;;14.25;5.40;;;27.50;53.30;;;;;;6244991;23;20023;-78
2023/05/30 12:24:58;;;;;;;13.30;5.40;;;27.40;54.50;;;;;;6245696;23;20015;-80
2023/05/30 12:27:26;;;;;;;12.05;5.97;;;27.30;55.00;;;;;;6218409;23;20083;-81
2023/05/30 12:29:52;;;;;;;10.05;5.70;;;27.20;55.30;;;;;;6245430;23;20027;-79
2023/05/30 12:32:23;;;;;;;34.50;6.25;;;27.20;55.90;;;;;;6246355;23;20419;-78
2023/05/30 12:34:49;;;;;;;16.63;6.05;;;27.00;56.90;;;;;;6246875;23;20008;-78
2023/05/30 12:37:17;;;;;;;9.27;5.20;;;26.80;57.30;;;;;;6245790;23;20040;-77
2023/05/30 12:40:00;;;;;;;9.15;5.07;;;26.40;58.10;;;;;;6245897;23;20000;-78
2023/05/30 12:42:30;;;;;;;7.47;4.82;;;26.30;57.90;;;;;;6246138;23;20008;-76
2023/05/30 12:45:03;;;;;;;5.88;3.97;;;26.20;57.20;;;;;;6246086;23;20020;-78